sensor_id;sensor_type;location;lat;lon;timestamp;pressure;altitude;pressure_sealevel;temperature;humidity
20987;BME280;10652;50.306;8.570;2023-02-03T00:03:17;98864.44;;;6.04;95.92
20987;BME280;10652;50.306;8.570;2023-02-03T00:07:20;98872.31;;;6.00;96.23
20987;BME280;10652;50.306;8.570;2023-02-03T00:11:22;98868.09;;;5.94;96.61
20987;BME280;10652;50.306;8.570;2023-02-03T00:15:24;98868.09;;;5.94;97.16
20987;BME280;10652;50.306;8.570;2023-02-03T00:19:26;98871.47;;;5.99;97.92
20987;BME280;10652;50.306;8.570;2023-02-03T00:23:28;98894.03;;;6.03;98.42
20987;BME280;10652;50.306;8.570;2023-02-03T00:27:32;98894.03;;;6.03;99.05
20987;BME280;10652;50.306;8.570;2023-02-03T00:31:35;98894.44;;;6.33;100.00
20987;BME280;10652;50.306;8.570;2023-02-03T00:35:38;98884.84;;;6.35;99.44
20987;BME280;10652;50.306;8.570;2023-02-03T00:39:40;98884.88;;;6.32;98.55
20987;BME280;10652;50.306;8.570;2023-02-03T00:43:43;98867.59;;;6.25;97.82
20987;BME280;10652;50.306;8.570;2023-02-03T00:47:45;98838.19;;;6.14;97.37
20987;BME280;10652;50.306;8.570;2023-02-03T00:51:47;98821.97;;;5.98;97.88
20987;BME280;10652;50.306;8.570;2023-02-03T00:55:49;98798.56;;;5.93;98.97
20987;BME280;10652;50.306;8.570;2023-02-03T00:59:53;98803.78;;;5.93;99.70
20987;BME280;10652;50.306;8.570;2023-02-03T01:03:55;98848.00;;;5.99;99.89
20987;BME280;10652;50.306;8.570;2023-02-03T01:07:59;98838.34;;;6.04;100.00
20987;BME280;10652;50.306;8.570;2023-02-03T01:12:02;98836.53;;;6.10;99.80
20987;BME280;10652;50.306;8.570;2023-02-03T01:16:16;98831.31;;;6.10;99.61
20987;BME280;10652;50.306;8.570;2023-02-03T01:20:18;98810.44;;;6.10;98.98
20987;BME280;10652;50.306;8.570;2023-02-03T01:24:22;98817.47;;;6.04;99.16
20987;BME280;10652;50.306;8.570;2023-02-03T01:28:24;98828.75;;;6.08;99.59
20987;BME280;10652;50.306;8.570;2023-02-03T01:32:26;98826.94;;;6.12;99.38
20987;BME280;10652;50.306;8.570;2023-02-03T01:36:30;98833.81;;;6.17;99.35
20987;BME280;10652;50.306;8.570;2023-02-03T01:40:32;98819.84;;;6.18;99.00
20987;BME280;10652;50.306;8.570;2023-02-03T01:48:40;98817.28;;;6.17;99.86
20987;BME280;10652;50.306;8.570;2023-02-03T01:52:44;98813.50;;;6.36;100.00
20987;BME280;10652;50.306;8.570;2023-02-03T01:56:52;98805.56;;;6.42;99.24
20987;BME280;10652;50.306;8.570;2023-02-03T02:00:57;98809.19;;;6.33;99.04
20987;BME280;10652;50.306;8.570;2023-02-03T02:05:24;98799.72;;;6.29;99.05
20987;BME280;10652;50.306;8.570;2023-02-03T02:09:28;98820.56;;;6.28;99.12
20987;BME280;10652;50.306;8.570;2023-02-03T02:13:31;98822.34;;;6.26;99.19
20987;BME280;10652;50.306;8.570;2023-02-03T02:18:18;98827.50;;;6.29;99.37
20987;BME280;10652;50.306;8.570;2023-02-03T02:27:05;98814.53;;;6.24;99.57
20987;BME280;10652;50.306;8.570;2023-02-03T02:35:44;98831.19;;;6.17;98.91
20987;BME280;10652;50.306;8.570;2023-02-03T02:44:16;98837.25;;;6.18;98.89
20987;BME280;10652;50.306;8.570;2023-02-03T02:48:35;98849.41;;;6.19;98.95
20987;BME280;10652;50.306;8.570;2023-02-03T02:52:40;98858.97;;;6.20;98.70
20987;BME280;10652;50.306;8.570;2023-02-03T02:56:47;98836.34;;;6.22;98.55
20987;BME280;10652;50.306;8.570;2023-02-03T03:00:51;98829.34;;;6.24;98.32
20987;BME280;10652;50.306;8.570;2023-02-03T03:04:53;98827.59;;;6.23;98.15
20987;BME280;10652;50.306;8.570;2023-02-03T03:09:03;98838.00;;;6.26;98.60
20987;BME280;10652;50.306;8.570;2023-02-03T03:13:11;98837.09;;;6.27;97.95
20987;BME280;10652;50.306;8.570;2023-02-03T03:17:22;98843.22;;;6.26;98.46
20987;BME280;10652;50.306;8.570;2023-02-03T03:21:32;98812.81;;;6.25;98.31
20987;BME280;10652;50.306;8.570;2023-02-03T03:25:43;98806.69;;;6.26;97.72
20987;BME280;10652;50.306;8.570;2023-02-03T03:30:06;98792.81;;;6.24;98.03
20987;BME280;10652;50.306;8.570;2023-02-03T03:34:11;98794.59;;;6.22;97.67
20987;BME280;10652;50.306;8.570;2023-02-03T03:38:37;98787.59;;;6.24;97.92
20987;BME280;10652;50.306;8.570;2023-02-03T03:42:50;98811.84;;;6.29;98.15
20987;BME280;10652;50.306;8.570;2023-02-03T03:47:20;98811.84;;;6.29;97.53
20987;BME280;10652;50.306;8.570;2023-02-03T03:51:38;98784.84;;;6.33;96.79
20987;BME280;10652;50.306;8.570;2023-02-03T03:55:43;98782.25;;;6.33;95.85
20987;BME280;10652;50.306;8.570;2023-02-03T03:59:48;98763.06;;;6.35;95.27
20987;BME280;10652;50.306;8.570;2023-02-03T04:03:59;98778.81;;;6.31;93.44
20987;BME280;10652;50.306;8.570;2023-02-03T04:08:02;98794.47;;;6.31;92.84
20987;BME280;10652;50.306;8.570;2023-02-03T04:12:12;98790.06;;;6.34;91.83
20987;BME280;10652;50.306;8.570;2023-02-03T04:16:17;98803.38;;;6.65;92.46
20987;BME280;10652;50.306;8.570;2023-02-03T04:20:19;98799.03;;;6.66;88.07
20987;BME280;10652;50.306;8.570;2023-02-03T04:24:21;98786.09;;;6.60;88.11
20987;BME280;10652;50.306;8.570;2023-02-03T04:28:23;98807.09;;;6.54;88.38
20987;BME280;10652;50.306;8.570;2023-02-03T04:32:26;98828.88;;;6.51;89.29
20987;BME280;10652;50.306;8.570;2023-02-03T04:36:28;98837.69;;;6.45;90.39
20987;BME280;10652;50.306;8.570;2023-02-03T04:40:30;98848.19;;;6.41;92.42
20987;BME280;10652;50.306;8.570;2023-02-03T04:44:35;98830.91;;;6.35;93.58
20987;BME280;10652;50.306;8.570;2023-02-03T04:48:37;98822.22;;;6.35;94.42
20987;BME280;10652;50.306;8.570;2023-02-03T04:52:40;98806.63;;;6.29;95.49
20987;BME280;10652;50.306;8.570;2023-02-03T04:56:42;98805.78;;;6.28;96.29
20987;BME280;10652;50.306;8.570;2023-02-03T05:00:44;98811.00;;;6.28;96.68
20987;BME280;10652;50.306;8.570;2023-02-03T05:04:46;98790.09;;;6.31;96.91
20987;BME280;10652;50.306;8.570;2023-02-03T05:08:48;98781.34;;;6.34;96.60
20987;BME280;10652;50.306;8.570;2023-02-03T05:12:50;98778.75;;;6.32;97.03
20987;BME280;10652;50.306;8.570;2023-02-03T05:16:52;98774.44;;;6.31;97.03
20987;BME280;10652;50.306;8.570;2023-02-03T05:20:54;98766.59;;;6.31;96.65
20987;BME280;10652;50.306;8.570;2023-02-03T05:24:56;98759.66;;;6.29;95.36
20987;BME280;10652;50.306;8.570;2023-02-03T05:28:58;98750.13;;;6.29;95.94
20987;BME280;10652;50.306;8.570;2023-02-03T05:33:00;98764.81;;;6.35;96.36
20987;BME280;10652;50.306;8.570;2023-02-03T05:37:02;98758.75;;;6.34;95.92
20987;BME280;10652;50.306;8.570;2023-02-03T05:41:04;98769.22;;;6.31;95.57
20987;BME280;10652;50.306;8.570;2023-02-03T05:45:30;98762.28;;;6.30;95.13
20987;BME280;10652;50.306;8.570;2023-02-03T05:49:32;98760.56;;;6.31;94.96
20987;BME280;10652;50.306;8.570;2023-02-03T05:53:34;98759.66;;;6.29;94.89
20987;BME280;10652;50.306;8.570;2023-02-03T05:57:36;98771.00;;;6.31;94.96
20987;BME280;10652;50.306;8.570;2023-02-03T06:01:38;98765.78;;;6.31;94.92
20987;BME280;10652;50.306;8.570;2023-02-03T06:05:40;98764.03;;;6.30;94.28
20987;BME280;10652;50.306;8.570;2023-02-03T06:09:44;98762.28;;;6.30;94.38
20987;BME280;10652;50.306;8.570;2023-02-03T06:13:46;98772.41;;;6.47;95.73
20987;BME280;10652;50.306;8.570;2023-02-03T06:17:48;98769.78;;;6.48;94.28
20987;BME280;10652;50.306;8.570;2023-02-03T06:21:50;98752.47;;;6.43;93.11
20987;BME280;10652;50.306;8.570;2023-02-03T06:25:52;98755.19;;;6.37;92.74
20987;BME280;10652;50.306;8.570;2023-02-03T06:29:54;98752.59;;;6.37;92.32
20987;BME280;10652;50.306;8.570;2023-02-03T06:33:56;98754.38;;;6.35;92.08
20987;BME280;10652;50.306;8.570;2023-02-03T06:38:00;98762.16;;;6.36;92.51
20987;BME280;10652;50.306;8.570;2023-02-03T06:42:03;98772.50;;;6.41;92.19
20987;BME280;10652;50.306;8.570;2023-02-03T06:46:05;98766.41;;;6.42;91.78
20987;BME280;10652;50.306;8.570;2023-02-03T06:50:09;98775.97;;;6.43;91.31
20987;BME280;10652;50.306;8.570;2023-02-03T06:54:12;98772.50;;;6.42;91.72
20987;BME280;10652;50.306;8.570;2023-02-03T06:58:14;98772.47;;;6.44;90.98
20987;BME280;10652;50.306;8.570;2023-02-03T07:02:17;98774.25;;;6.40;90.26
20987;BME280;10652;50.306;8.570;2023-02-03T07:06:19;98772.59;;;6.38;90.34
20987;BME280;10652;50.306;8.570;2023-02-03T07:10:21;98780.34;;;6.41;91.00
20987;BME280;10652;50.306;8.570;2023-02-03T07:14:23;98772.50;;;6.42;90.08
20987;BME280;10652;50.306;8.570;2023-02-03T07:18:25;98756.38;;;6.65;93.68
20987;BME280;10652;50.306;8.570;2023-02-03T07:22:52;98743.91;;;7.19;93.04
20987;BME280;10652;50.306;8.570;2023-02-03T07:26:54;98754.63;;;7.46;87.33
20987;BME280;10652;50.306;8.570;2023-02-03T07:30:56;98763.94;;;7.19;84.60
20987;BME280;10652;50.306;8.570;2023-02-03T07:34:58;98778.28;;;7.01;83.46
20987;BME280;10652;50.306;8.570;2023-02-03T07:39:02;98747.25;;;6.86;84.33
20987;BME280;10652;50.306;8.570;2023-02-03T07:43:04;98759.59;;;6.78;84.38
20987;BME280;10652;50.306;8.570;2023-02-03T07:47:06;98790.16;;;6.74;84.60
20987;BME280;10652;50.306;8.570;2023-02-03T07:51:08;98784.16;;;6.69;85.27
20987;BME280;10652;50.306;8.570;2023-02-03T07:55:10;98789.38;;;6.69;85.67
20987;BME280;10652;50.306;8.570;2023-02-03T07:59:12;98799.81;;;6.69;85.37
20987;BME280;10652;50.306;8.570;2023-02-03T08:03:14;98797.28;;;6.66;85.41
20987;BME280;10652;50.306;8.570;2023-02-03T08:07:16;98797.28;;;6.66;85.73
20987;BME280;10652;50.306;8.570;2023-02-03T08:11:18;98785.94;;;6.67;86.01
20987;BME280;10652;50.306;8.570;2023-02-03T08:15:20;98792.00;;;6.69;85.69
20987;BME280;10652;50.306;8.570;2023-02-03T08:19:23;98772.81;;;6.72;85.74
20987;BME280;10652;50.306;8.570;2023-02-03T08:23:25;98768.38;;;6.75;85.55
20987;BME280;10652;50.306;8.570;2023-02-03T08:27:27;98767.53;;;6.73;84.82
20987;BME280;10652;50.306;8.570;2023-02-03T08:31:30;98755.34;;;6.72;84.84
20987;BME280;10652;50.306;8.570;2023-02-03T08:35:32;98757.03;;;6.76;84.78
20987;BME280;10652;50.306;8.570;2023-02-03T08:39:35;98737.81;;;6.80;84.65
20987;BME280;10652;50.306;8.570;2023-02-03T08:43:37;98740.38;;;6.82;83.39
20987;BME280;10652;50.306;8.570;2023-02-03T08:47:40;98736.84;;;6.84;82.92
20987;BME280;10652;50.306;8.570;2023-02-03T08:51:43;98722.81;;;6.90;83.69
20987;BME280;10652;50.306;8.570;2023-02-03T08:55:48;98722.72;;;6.95;82.48
20987;BME280;10652;50.306;8.570;2023-02-03T08:59:50;98733.88;;;7.00;82.17
20987;BME280;10652;50.306;8.570;2023-02-03T09:03:53;98733.75;;;7.07;81.28
20987;BME280;10652;50.306;8.570;2023-02-03T09:07:55;98743.25;;;7.10;80.46
20987;BME280;10652;50.306;8.570;2023-02-03T09:11:57;98750.19;;;7.12;81.12
20987;BME280;10652;50.306;8.570;2023-02-03T09:16:05;98743.03;;;7.20;80.53
20987;BME280;10652;50.306;8.570;2023-02-03T09:20:08;98734.97;;;7.29;80.03
20987;BME280;10652;50.306;8.570;2023-02-03T09:24:11;98744.34;;;7.40;79.85
20987;BME280;10652;50.306;8.570;2023-02-03T09:28:13;98743.25;;;7.48;79.19
20987;BME280;10652;50.306;8.570;2023-02-03T09:32:15;98742.09;;;7.60;78.89
20987;BME280;10652;50.306;8.570;2023-02-03T09:36:17;98741.97;;;7.66;78.30
20987;BME280;10652;50.306;8.570;2023-02-03T09:40:23;98735.94;;;7.62;77.57
20987;BME280;10652;50.306;8.570;2023-02-03T09:44:43;98744.69;;;7.61;77.88
20987;BME280;10652;50.306;8.570;2023-02-03T09:48:51;98738.44;;;7.67;78.32
20987;BME280;10652;50.306;8.570;2023-02-03T09:52:56;98746.13;;;7.73;77.96
20987;BME280;10652;50.306;8.570;2023-02-03T09:56:59;98746.97;;;7.75;78.51
20987;BME280;10652;50.306;8.570;2023-02-03T10:01:07;98742.59;;;7.75;79.33
20987;BME280;10652;50.306;8.570;2023-02-03T10:05:34;98739.13;;;7.73;79.12
20987;BME280;10652;50.306;8.570;2023-02-03T10:09:49;98728.88;;;7.66;79.66
20987;BME280;10652;50.306;8.570;2023-02-03T10:14:18;98734.31;;;7.58;80.26
20987;BME280;10652;50.306;8.570;2023-02-03T10:18:30;98743.06;;;7.56;80.92
20987;BME280;10652;50.306;8.570;2023-02-03T10:22:44;98739.66;;;7.54;81.49
20987;BME280;10652;50.306;8.570;2023-02-03T10:26:46;98753.72;;;7.48;82.21
20987;BME280;10652;50.306;8.570;2023-02-03T10:30:55;98770.47;;;7.40;83.09
20987;BME280;10652;50.306;8.570;2023-02-03T10:34:57;98754.91;;;7.33;84.20
20987;BME280;10652;50.306;8.570;2023-02-03T10:39:16;98755.75;;;7.35;84.71
20987;BME280;10652;50.306;8.570;2023-02-03T10:43:20;98762.53;;;7.44;86.39
20987;BME280;10652;50.306;8.570;2023-02-03T10:47:46;98758.28;;;7.38;89.59
20987;BME280;10652;50.306;8.570;2023-02-03T10:51:50;98752.13;;;7.41;91.42
20987;BME280;10652;50.306;8.570;2023-02-03T10:56:07;98726.81;;;7.43;92.77
20987;BME280;10652;50.306;8.570;2023-02-03T11:00:22;98710.94;;;7.51;94.28
20987;BME280;10652;50.306;8.570;2023-02-03T11:04:30;98713.06;;;7.70;94.83
20987;BME280;10652;50.306;8.570;2023-02-03T11:08:34;98715.25;;;7.87;94.07
20987;BME280;10652;50.306;8.570;2023-02-03T11:12:36;98703.63;;;7.99;94.25
20987;BME280;10652;50.306;8.570;2023-02-03T11:16:38;98709.72;;;7.99;91.99
20987;BME280;10652;50.306;8.570;2023-02-03T11:20:45;98724.63;;;7.96;93.09
20987;BME280;10652;50.306;8.570;2023-02-03T11:24:47;98741.38;;;7.89;92.13
20987;BME280;10652;50.306;8.570;2023-02-03T11:28:50;98743.47;;;7.76;93.32
20987;BME280;10652;50.306;8.570;2023-02-03T11:32:53;98748.81;;;7.70;94.25
20987;BME280;10652;50.306;8.570;2023-02-03T11:36:55;98744.91;;;7.52;96.42
20987;BME280;10652;50.306;8.570;2023-02-03T11:40:59;98747.59;;;7.49;97.60
20987;BME280;10652;50.306;8.570;2023-02-03T11:45:17;98736.31;;;7.47;98.30
20987;BME280;10652;50.306;8.570;2023-02-03T11:54:00;98696.41;;;7.39;100.00
20987;BME280;10652;50.306;8.570;2023-02-03T12:02:46;98676.28;;;7.43;100.00
20987;BME280;10652;50.306;8.570;2023-02-03T12:11:33;98644.84;;;7.46;100.00
20987;BME280;10652;50.306;8.570;2023-02-03T12:16:03;98652.78;;;7.41;100.00
20987;BME280;10652;50.306;8.570;2023-02-03T12:20:22;98650.38;;;7.33;100.00
20987;BME280;10652;50.306;8.570;2023-02-03T12:29:10;98673.25;;;7.24;100.00
20987;BME280;10652;50.306;8.570;2023-02-03T12:33:43;98694.34;;;7.16;100.00
20987;BME280;10652;50.306;8.570;2023-02-03T12:38:04;98698.78;;;7.13;100.00
20987;BME280;10652;50.306;8.570;2023-02-03T12:42:25;98699.81;;;7.06;100.00
20987;BME280;10652;50.306;8.570;2023-02-03T12:46:34;98689.38;;;7.04;100.00
20987;BME280;10652;50.306;8.570;2023-02-03T12:50:50;98693.97;;;6.95;100.00
20987;BME280;10652;50.306;8.570;2023-02-03T12:55:00;98678.34;;;6.91;100.00
20987;BME280;10652;50.306;8.570;2023-02-03T12:59:07;98660.97;;;6.90;100.00
20987;BME280;10652;50.306;8.570;2023-02-03T13:03:29;98668.78;;;6.90;100.00
20987;BME280;10652;50.306;8.570;2023-02-03T13:07:40;98656.69;;;6.88;100.00
20987;BME280;10652;50.306;8.570;2023-02-03T13:12:06;98657.50;;;6.90;100.00
20987;BME280;10652;50.306;8.570;2023-02-03T13:16:10;98659.16;;;6.94;100.00
20987;BME280;10652;50.306;8.570;2023-02-03T13:20:19;98662.47;;;7.01;100.00
20987;BME280;10652;50.306;8.570;2023-02-03T13:24:25;98669.56;;;6.96;100.00
20987;BME280;10652;50.306;8.570;2023-02-03T13:28:39;98667.78;;;6.98;100.00
20987;BME280;10652;50.306;8.570;2023-02-03T13:41:37;98673.09;;;6.93;100.00
20987;BME280;10652;50.306;8.570;2023-02-03T13:45:48;98668.69;;;6.95;100.00
20987;BME280;10652;50.306;8.570;2023-02-03T13:49:55;98660.03;;;6.95;100.00
20987;BME280;10652;50.306;8.570;2023-02-03T13:54:13;98640.81;;;6.96;100.00
20987;BME280;10652;50.306;8.570;2023-02-03T13:58:37;98651.31;;;6.94;100.00
20987;BME280;10652;50.306;8.570;2023-02-03T14:02:51;98665.28;;;6.91;100.00
20987;BME280;10652;50.306;8.570;2023-02-03T14:06:56;98680.94;;;6.93;100.00
20987;BME280;10652;50.306;8.570;2023-02-03T14:15:37;98680.00;;;6.96;100.00
20987;BME280;10652;50.306;8.570;2023-02-03T14:23:57;98699.09;;;6.99;100.00
20987;BME280;10652;50.306;8.570;2023-02-03T14:28:03;98683.38;;;7.01;100.00
20987;BME280;10652;50.306;8.570;2023-02-03T14:32:11;98672.88;;;7.04;100.00
20987;BME280;10652;50.306;8.570;2023-02-03T14:36:28;98679.78;;;7.05;100.00
20987;BME280;10652;50.306;8.570;2023-02-03T14:45:00;98664.97;;;7.07;100.00
20987;BME280;10652;50.306;8.570;2023-02-03T14:53:34;98673.50;;;7.13;100.00
20987;BME280;10652;50.306;8.570;2023-02-03T14:57:48;98695.31;;;7.12;100.00
20987;BME280;10652;50.306;8.570;2023-02-03T15:06:03;98699.84;;;7.41;100.00
20987;BME280;10652;50.306;8.570;2023-02-03T15:10:15;98697.59;;;8.29;100.00
20987;BME280;10652;50.306;8.570;2023-02-03T15:14:21;98702.16;;;7.89;100.00
20987;BME280;10652;50.306;8.570;2023-02-03T15:18:30;98707.13;;;7.64;100.00
20987;BME280;10652;50.306;8.570;2023-02-03T15:22:36;98720.69;;;7.44;100.00
20987;BME280;10652;50.306;8.570;2023-02-03T15:26:44;98724.72;;;7.22;100.00
20987;BME280;10652;50.306;8.570;2023-02-03T15:35:16;98727.75;;;7.02;100.00
20987;BME280;10652;50.306;8.570;2023-02-03T15:39:45;98711.31;;;6.99;100.00
20987;BME280;10652;50.306;8.570;2023-02-03T15:43:55;98713.94;;;6.97;100.00
20987;BME280;10652;50.306;8.570;2023-02-03T15:48:28;98718.31;;;6.95;100.00
20987;BME280;10652;50.306;8.570;2023-02-03T15:52:34;98715.72;;;6.95;100.00
20987;BME280;10652;50.306;8.570;2023-02-03T15:56:49;98730.59;;;6.91;100.00
20987;BME280;10652;50.306;8.570;2023-02-03T16:01:00;98719.34;;;6.89;100.00
20987;BME280;10652;50.306;8.570;2023-02-03T16:05:09;98708.88;;;6.89;100.00
20987;BME280;10652;50.306;8.570;2023-02-03T16:09:33;98707.97;;;6.90;100.00
20987;BME280;10652;50.306;8.570;2023-02-03T16:13:41;98733.25;;;6.90;100.00
20987;BME280;10652;50.306;8.570;2023-02-03T16:17:43;98728.94;;;6.87;100.00
20987;BME280;10652;50.306;8.570;2023-02-03T16:26:18;98738.59;;;6.84;100.00
20987;BME280;10652;50.306;8.570;2023-02-03T16:30:22;98734.25;;;6.84;100.00
20987;BME280;10652;50.306;8.570;2023-02-03T16:34:44;98737.66;;;6.86;100.00
20987;BME280;10652;50.306;8.570;2023-02-03T16:39:10;98744.69;;;6.84;100.00
20987;BME280;10652;50.306;8.570;2023-02-03T16:43:30;98755.13;;;6.84;100.00
20987;BME280;10652;50.306;8.570;2023-02-03T16:47:51;98753.47;;;6.80;100.00
20987;BME280;10652;50.306;8.570;2023-02-03T16:52:11;98748.28;;;6.77;100.00
20987;BME280;10652;50.306;8.570;2023-02-03T16:56:13;98753.59;;;6.74;100.00
20987;BME280;10652;50.306;8.570;2023-02-03T17:00:18;98751.81;;;6.76;100.00
20987;BME280;10652;50.306;8.570;2023-02-03T17:04:24;98750.91;;;6.77;100.00
20987;BME280;10652;50.306;8.570;2023-02-03T17:08:26;98753.53;;;6.77;100.00
20987;BME280;10652;50.306;8.570;2023-02-03T17:12:28;98761.41;;;6.76;100.00
20987;BME280;10652;50.306;8.570;2023-02-03T17:16:32;98791.91;;;6.72;100.00
20987;BME280;10652;50.306;8.570;2023-02-03T17:20:35;98793.66;;;6.73;100.00
20987;BME280;10652;50.306;8.570;2023-02-03T17:24:37;98810.16;;;6.74;100.00
20987;BME280;10652;50.306;8.570;2023-02-03T17:28:40;98819.81;;;6.70;100.00
20987;BME280;10652;50.306;8.570;2023-02-03T17:32:44;98836.47;;;6.65;100.00
20987;BME280;10652;50.306;8.570;2023-02-03T17:36:46;98826.19;;;6.56;100.00
20987;BME280;10652;50.306;8.570;2023-02-03T17:40:48;98825.38;;;6.52;100.00
20987;BME280;10652;50.306;8.570;2023-02-03T17:45:08;98804.69;;;6.43;100.00
20987;BME280;10652;50.306;8.570;2023-02-03T17:49:28;98785.69;;;6.35;100.00
20987;BME280;10652;50.306;8.570;2023-02-03T17:53:48;98811.91;;;6.26;100.00
20987;BME280;10652;50.306;8.570;2023-02-03T17:57:50;98809.34;;;6.23;100.00
20987;BME280;10652;50.306;8.570;2023-02-03T18:01:52;98807.75;;;6.16;100.00
20987;BME280;10652;50.306;8.570;2023-02-03T18:05:54;98800.13;;;6.03;98.68
20987;BME280;10652;50.306;8.570;2023-02-03T18:09:56;98792.38;;;5.99;98.52
20987;BME280;10652;50.306;8.570;2023-02-03T18:13:59;98787.28;;;5.91;94.40
20987;BME280;10652;50.306;8.570;2023-02-03T18:18:01;98789.94;;;5.88;94.89
20987;BME280;10652;50.306;8.570;2023-02-03T18:22:03;98798.66;;;5.87;93.78
20987;BME280;10652;50.306;8.570;2023-02-03T18:26:07;98809.94;;;5.88;93.65
20987;BME280;10652;50.306;8.570;2023-02-03T18:30:10;98820.38;;;5.86;92.79
20987;BME280;10652;50.306;8.570;2023-02-03T18:34:14;98817.03;;;5.80;90.58
20987;BME280;10652;50.306;8.570;2023-02-03T18:38:16;98839.63;;;5.81;90.68
20987;BME280;10652;50.306;8.570;2023-02-03T18:42:19;98836.97;;;5.82;90.78
20987;BME280;10652;50.306;8.570;2023-02-03T18:46:24;98839.56;;;5.84;91.30
20987;BME280;10652;50.306;8.570;2023-02-03T18:50:26;98859.56;;;5.83;92.36
20987;BME280;10652;50.306;8.570;2023-02-03T18:54:29;98881.28;;;5.82;92.49
20987;BME280;10652;50.306;8.570;2023-02-03T18:58:31;98887.38;;;5.81;92.76
20987;BME280;10652;50.306;8.570;2023-02-03T19:02:33;98910.03;;;5.79;92.84
20987;BME280;10652;50.306;8.570;2023-02-03T19:06:35;98917.00;;;5.77;93.40
20987;BME280;10652;50.306;8.570;2023-02-03T19:10:38;98920.53;;;5.73;93.52
20987;BME280;10652;50.306;8.570;2023-02-03T19:14:40;98921.44;;;5.72;94.19
20987;BME280;10652;50.306;8.570;2023-02-03T19:18:45;98915.41;;;5.67;94.43
20987;BME280;10652;50.306;8.570;2023-02-03T19:22:47;98917.16;;;5.67;94.93
20987;BME280;10652;50.306;8.570;2023-02-03T19:26:49;98906.75;;;5.64;95.34
20987;BME280;10652;50.306;8.570;2023-02-03T19:30:51;98898.13;;;5.60;96.69
20987;BME280;10652;50.306;8.570;2023-02-03T19:35:00;98916.38;;;5.60;96.73
20987;BME280;10652;50.306;8.570;2023-02-03T19:39:02;98921.63;;;5.57;97.52
20987;BME280;10652;50.306;8.570;2023-02-03T19:43:04;98906.94;;;5.50;97.96
20987;BME280;10652;50.306;8.570;2023-02-03T19:47:06;98922.69;;;5.42;99.35
20987;BME280;10652;50.306;8.570;2023-02-03T19:51:08;98934.94;;;5.36;100.00
20987;BME280;10652;50.306;8.570;2023-02-03T19:55:13;98945.38;;;5.33;100.00
20987;BME280;10652;50.306;8.570;2023-02-03T19:59:15;98951.44;;;5.33;100.00
20987;BME280;10652;50.306;8.570;2023-02-03T20:03:17;98968.00;;;5.31;100.00
20987;BME280;10652;50.306;8.570;2023-02-03T20:07:20;98968.00;;;5.31;100.00
20987;BME280;10652;50.306;8.570;2023-02-03T20:11:24;98980.16;;;5.30;100.00
20987;BME280;10652;50.306;8.570;2023-02-03T20:15:26;98983.63;;;5.28;100.00
20987;BME280;10652;50.306;8.570;2023-02-03T20:19:28;98972.41;;;5.23;100.00
20987;BME280;10652;50.306;8.570;2023-02-03T20:23:30;98982.03;;;5.18;100.00
20987;BME280;10652;50.306;8.570;2023-02-03T20:27:32;98973.41;;;5.12;100.00
20987;BME280;10652;50.306;8.570;2023-02-03T20:31:34;98983.81;;;5.09;100.00
20987;BME280;10652;50.306;8.570;2023-02-03T20:35:37;98991.69;;;5.08;100.00
20987;BME280;10652;50.306;8.570;2023-02-03T20:39:39;98988.22;;;5.07;100.00
20987;BME280;10652;50.306;8.570;2023-02-03T20:43:41;98980.41;;;5.07;100.00
20987;BME280;10652;50.306;8.570;2023-02-03T20:47:44;98974.31;;;5.07;100.00
20987;BME280;10652;50.306;8.570;2023-02-03T20:51:46;98970.00;;;5.04;100.00
20987;BME280;10652;50.306;8.570;2023-02-03T20:55:49;98984.75;;;5.05;99.86
20987;BME280;10652;50.306;8.570;2023-02-03T20:59:51;98980.41;;;5.04;100.00
20987;BME280;10652;50.306;8.570;2023-02-03T21:03:53;98975.19;;;5.04;100.00
20987;BME280;10652;50.306;8.570;2023-02-03T21:08:18;98985.56;;;5.10;100.00
20987;BME280;10652;50.306;8.570;2023-02-03T21:12:21;98980.31;;;5.15;99.58
20987;BME280;10652;50.306;8.570;2023-02-03T21:16:24;98997.66;;;5.18;98.91
20987;BME280;10652;50.306;8.570;2023-02-03T21:20:33;99003.69;;;5.18;98.12
20987;BME280;10652;50.306;8.570;2023-02-03T21:24:35;98994.16;;;5.19;97.16
20987;BME280;10652;50.306;8.570;2023-02-03T21:28:38;98994.13;;;5.22;96.75
20987;BME280;10652;50.306;8.570;2023-02-03T21:32:40;99006.25;;;5.26;97.09
20987;BME280;10652;50.306;8.570;2023-02-03T21:36:42;99021.84;;;5.29;96.30
20987;BME280;10652;50.306;8.570;2023-02-03T21:40:44;99031.41;;;5.28;95.20
20987;BME280;10652;50.306;8.570;2023-02-03T21:44:46;99032.22;;;5.32;94.99
20987;BME280;10652;50.306;8.570;2023-02-03T21:48:50;99046.94;;;5.39;95.22
20987;BME280;10652;50.306;8.570;2023-02-03T21:52:53;99045.00;;;5.56;96.87
20987;BME280;10652;50.306;8.570;2023-02-03T21:56:56;99039.53;;;5.79;92.22
20987;BME280;10652;50.306;8.570;2023-02-03T22:01:01;99049.34;;;5.57;89.42
20987;BME280;10652;50.306;8.570;2023-02-03T22:05:09;99047.75;;;5.44;90.77
20987;BME280;10652;50.306;8.570;2023-02-03T22:09:15;99058.25;;;5.35;90.69
20987;BME280;10652;50.306;8.570;2023-02-03T22:13:17;99058.31;;;5.27;91.29
20987;BME280;10652;50.306;8.570;2023-02-03T22:17:20;99065.38;;;5.18;91.91
20987;BME280;10652;50.306;8.570;2023-02-03T22:21:23;99073.28;;;5.05;92.57
20987;BME280;10652;50.306;8.570;2023-02-03T22:25:25;99084.59;;;5.00;92.85
20987;BME280;10652;50.306;8.570;2023-02-03T22:29:27;99085.53;;;4.91;93.15
20987;BME280;10652;50.306;8.570;2023-02-03T22:33:30;99106.44;;;4.85;93.68
20987;BME280;10652;50.306;8.570;2023-02-03T22:37:32;99117.75;;;4.81;93.37
20987;BME280;10652;50.306;8.570;2023-02-03T22:41:34;99111.69;;;4.78;93.85
20987;BME280;10652;50.306;8.570;2023-02-03T22:45:36;99129.94;;;4.76;93.70
20987;BME280;10652;50.306;8.570;2023-02-03T22:49:38;99145.53;;;4.79;93.32
20987;BME280;10652;50.306;8.570;2023-02-03T22:53:40;99151.56;;;4.84;93.32
20987;BME280;10652;50.306;8.570;2023-02-03T22:57:42;99149.78;;;4.91;92.61
20987;BME280;10652;50.306;8.570;2023-02-03T23:01:44;99154.94;;;4.95;91.83
20987;BME280;10652;50.306;8.570;2023-02-03T23:05:47;99151.50;;;4.93;91.71
20987;BME280;10652;50.306;8.570;2023-02-03T23:09:49;99155.84;;;4.91;90.82
20987;BME280;10652;50.306;8.570;2023-02-03T23:13:51;99152.34;;;4.95;91.27